Time;durP1;ratioP1;P1;durP2;ratioP2;P2;SDS_P1;SDS_P2;PMS_P1;PMS_P2;Temp;Humidity;BMP_temperature;BMP_pressure;BME280_temperature;BME280_humidity;BME280_pressure;Samples;Min_cycle;Max_cycle;Signal;HPM_P1;HPM_P2
2023/10/12 00:01:57;;;;;;;14.23;4.40;;;;;;;19.61;72.29;100342.59;5050683;28;20435;-59
2023/10/12 00:04:38;;;;;;;10.33;3.73;;;;;;;19.59;72.59;100342.97;5061963;28;20498;-59
2023/10/12 00:07:10;;;;;;;9.10;4.80;;;;;;;19.59;72.83;100342.13;5059134;28;20917;-59
2023/10/12 00:09:36;;;;;;;7.23;3.60;;;;;;;19.58;72.52;100334.75;5069258;28;20468;-59
2023/10/12 00:12:07;;;;;;;9.63;4.07;;;;;;;19.58;72.71;100329.88;5064291;28;21131;-59
2023/10/12 00:14:33;;;;;;;16.67;5.07;;;;;;;19.58;72.72;100327.00;5053309;28;20207;-58
2023/10/12 00:16:59;;;;;;;12.87;4.50;;;;;;;19.57;72.75;100328.19;5052142;28;21012;-59
2023/10/12 00:19:24;;;;;;;10.03;3.87;;;;;;;19.57;72.64;100330.25;5063446;28;20220;-58
2023/10/12 00:22:09;;;;;;;9.30;3.93;;;;;;;19.56;72.51;100328.59;5065271;28;20187;-59
2023/10/12 00:24:35;;;;;;;9.63;4.80;;;;;;;19.56;72.70;100320.00;5071038;28;20186;-59
2023/10/12 00:27:02;;;;;;;9.17;3.70;;;;;;;19.55;72.64;100319.16;5068581;28;20449;-59
2023/10/12 00:29:28;;;;;;;8.07;4.13;;;;;;;19.55;72.54;100316.31;5057658;28;20833;-59
2023/10/12 00:31:55;;;;;;;15.70;3.77;;;;;;;19.55;72.51;100306.88;5070930;28;20510;-59
2023/10/12 00:34:27;;;;;;;10.27;3.90;;;;;;;19.56;72.57;100309.38;5070411;28;20443;-59
2023/10/12 00:36:53;;;;;;;13.23;4.63;;;;;;;19.55;72.46;100313.44;5069401;28;20452;-59
2023/10/12 00:39:20;;;;;;;10.53;4.17;;;;;;;19.54;72.63;100311.81;5051235;28;20430;-59
2023/10/12 00:41:46;;;;;;;6.90;3.93;;;;;;;19.56;72.74;100317.16;5050173;28;20194;-59
2023/10/12 00:44:12;;;;;;;7.97;3.97;;;;;;;19.55;72.55;100307.72;5066488;28;20445;-58
2023/10/12 00:49:21;;;;;;;8.77;3.63;;;;;;;19.54;72.64;100311.81;5061135;28;20445;-60
2023/10/12 00:51:53;;;;;;;10.77;4.53;;;;;;;19.54;72.45;100308.09;5059599;28;20453;-59
2023/10/12 00:54:56;;;;;;;7.30;3.83;;;;;;;19.55;72.57;100306.88;5066596;28;20437;-59
2023/10/12 00:57:12;;;;;;;11.83;3.57;;;;;;;19.54;72.56;100314.66;5047642;28;20525;-58
2023/10/12 00:59:38;;;;;;;8.63;3.40;;;;;;;19.53;72.53;100315.03;5050761;28;20460;-58
2023/10/12 01:02:15;;;;;;;9.37;4.23;;;;;;;19.54;72.47;100300.34;5058986;28;20265;-59
2023/10/12 01:04:52;;;;;;;8.27;3.47;;;;;;;19.55;72.53;100302.00;5068905;28;20437;-59
2023/10/12 01:07:25;;;;;;;5.37;3.47;;;;;;;19.53;72.74;100298.69;5055143;28;20458;-59
2023/10/12 01:10:03;;;;;;;8.70;3.63;;;;;;;19.54;72.58;100302.38;5050532;28;20796;-59
2023/10/12 01:12:31;;;;;;;8.33;3.60;;;;;;;19.53;72.46;100297.88;5062482;28;20473;-59
2023/10/12 01:14:56;;;;;;;9.63;4.43;;;;;;;19.54;72.62;100306.06;5065693;28;20533;-59
2023/10/12 01:17:29;;;;;;;7.10;3.93;;;;;;;19.54;72.41;100300.34;5056341;28;20455;-59
2023/10/12 01:19:55;;;;;;;8.53;3.67;;;;;;;19.55;72.81;100301.16;5058331;28;20231;-59
2023/10/12 01:22:27;;;;;;;11.50;3.70;;;;;;;19.53;72.43;100297.88;5058303;28;20486;-59
2023/10/12 01:27:21;;;;;;;7.40;4.07;;;;;;;19.53;72.53;100297.88;5069745;28;20429;-59
2023/10/12 01:29:53;;;;;;;7.43;3.67;;;;;;;19.52;72.18;100297.03;5059464;28;20433;-59
2023/10/12 01:34:51;;;;;;;8.27;3.57;;;;;;;19.53;72.27;100281.53;5055035;28;20426;-59
2023/10/12 01:37:24;;;;;;;5.87;3.50;;;;;;;19.53;72.40;100295.00;5053032;28;20489;-59
2023/10/12 01:47:54;;;;;;;6.93;3.40;;;;;;;19.52;72.52;100285.56;5051601;28;20445;-59
2023/10/12 01:50:20;;;;;;;6.30;3.57;;;;;;;19.52;72.48;100284.78;5049790;28;20471;-59
2023/10/12 01:52:46;;;;;;;5.80;3.27;;;;;;;19.52;72.55;100279.84;5057185;28;20464;-59
2023/10/12 01:55:23;;;;;;;6.23;3.67;;;;;;;19.50;72.67;100282.28;5059523;28;20195;-59
2023/10/12 01:57:54;;;;;;;7.20;3.40;;;;;;;19.51;72.60;100289.66;5063250;28;20441;-59
2023/10/12 02:00:39;;;;;;;8.00;3.83;;;;;;;19.52;72.56;100293.34;5053076;28;20505;-59
2023/10/12 02:06:00;;;;;;;8.77;4.30;;;;;;;19.52;72.48;100282.72;5069371;28;20429;-58
2023/10/12 02:08:32;;;;;;;9.17;3.63;;;;;;;19.52;72.50;100294.16;5053553;28;20445;-59
2023/10/12 02:11:10;;;;;;;6.47;3.60;;;;;;;19.52;72.70;100281.91;5052333;28;20445;-59
2023/10/12 02:13:36;;;;;;;4.47;2.90;;;;;;;19.52;72.60;100287.63;5055973;28;20472;-59
2023/10/12 02:16:04;;;;;;;5.83;3.30;;;;;;;19.51;72.33;100292.53;5069367;28;20451;-59
2023/10/12 02:18:31;;;;;;;8.70;3.43;;;;;;;19.53;72.49;100292.13;5067562;28;20202;-59
2023/10/12 02:34:18;;;;;;;5.27;3.40;;;;;;;19.51;72.52;100277.41;5048236;28;20839;-60
2023/10/12 02:37:00;;;;;;;7.03;4.10;;;;;;;19.52;72.44;100279.03;5048421;28;20444;-59
2023/10/12 02:39:27;;;;;;;5.93;3.10;;;;;;;19.50;72.51;100279.41;5065532;28;20489;-59
2023/10/12 02:42:10;;;;;;;5.97;3.07;;;;;;;19.50;72.48;100273.69;5066546;28;21344;-59
2023/10/12 02:44:42;;;;;;;4.73;2.73;;;;;;;19.51;72.49;100278.19;5070654;28;20504;-59
2023/10/12 02:47:23;;;;;;;5.67;3.60;;;;;;;19.50;72.49;100264.25;5069097;28;20616;-59
2023/10/12 02:50:14;;;;;;;6.43;3.70;;;;;;;19.50;72.52;100261.41;5072386;28;20427;-59
2023/10/12 02:52:43;;;;;;;8.13;3.03;;;;;;;19.50;72.58;100265.09;5068359;28;20480;-59
2023/10/12 02:55:25;;;;;;;6.77;3.30;;;;;;;19.52;72.46;100264.72;5064472;28;20479;-59
2023/10/12 02:57:59;;;;;;;6.37;3.60;;;;;;;19.51;72.48;100260.22;5063103;28;20436;-59
2023/10/12 03:01:12;;;;;;;4.90;3.37;;;;;;;19.51;72.42;100263.06;5071140;28;20774;-59
2023/10/12 03:03:26;;;;;;;6.00;3.30;;;;;;;19.50;72.52;100267.13;5060870;28;20445;-59
2023/10/12 03:05:53;;;;;;;8.90;3.40;;;;;;;19.51;72.43;100277.41;5059227;28;20425;-59
2023/10/12 03:08:20;;;;;;;8.80;3.40;;;;;;;19.50;72.43;100276.56;5068962;28;20491;-59
2023/10/12 03:11:31;;;;;;;6.93;3.90;;;;;;;19.50;72.47;100276.56;5070907;28;20430;-59
2023/10/12 03:13:36;;;;;;;5.40;3.37;;;;;;;19.49;72.61;100272.06;5058270;28;20481;-59
2023/10/12 03:18:44;;;;;;;4.57;2.90;;;;;;;19.51;72.26;100281.06;5068448;28;20465;-59
2023/10/12 03:21:12;;;;;;;7.13;3.40;;;;;;;19.51;72.48;100283.13;5065705;28;20441;-59
2023/10/12 03:23:38;;;;;;;4.80;2.60;;;;;;;19.51;72.34;100283.13;5051953;28;20184;-59
2023/10/12 03:28:46;;;;;;;5.17;2.97;;;;;;;19.50;72.52;100290.03;5071077;28;20464;-59
2023/10/12 03:31:15;;;;;;;5.80;3.07;;;;;;;19.50;72.11;100288.00;5064113;28;20441;-58
2023/10/12 03:33:46;;;;;;;6.10;3.77;;;;;;;19.50;72.32;100290.03;5047137;28;20465;-59
2023/10/12 03:36:36;;;;;;;5.40;3.47;;;;;;;19.51;72.54;100291.72;5069119;28;21002;-59
2023/10/12 03:47:29;;;;;;;6.37;4.00;;;;;;;19.50;72.20;100296.59;5052183;28;20413;-58
2023/10/12 03:49:58;;;;;;;5.90;3.67;;;;;;;19.50;72.37;100293.75;5070942;28;20438;-59
2023/10/12 03:52:29;;;;;;;5.90;2.77;;;;;;;19.49;72.44;100297.81;5070860;28;20440;-59
2023/10/12 03:57:30;;;;;;;5.00;3.00;;;;;;;19.50;72.24;100293.75;5055452;28;20425;-59
2023/10/12 04:05:46;;;;;;;4.73;2.97;;;;;;;19.50;72.10;100298.63;5071039;28;20446;-59
2023/10/12 04:18:40;;;;;;;6.50;3.63;;;;;;;19.50;72.42;100305.19;5065205;28;20441;-58
2023/10/12 04:21:06;;;;;;;6.30;3.10;;;;;;;19.49;72.48;100303.53;5070656;28;20437;-59
2023/10/12 04:23:44;;;;;;;5.80;2.93;;;;;;;19.49;72.27;100292.09;5070427;28;20425;-58
2023/10/12 04:28:39;;;;;;;6.20;3.53;;;;;;;19.48;72.60;100296.19;5064237;28;20441;-59
2023/10/12 04:33:43;;;;;;;5.37;3.20;;;;;;;19.49;72.12;100303.53;5067836;28;20631;-58
2023/10/12 04:36:11;;;;;;;5.20;3.10;;;;;;;19.50;72.22;100290.03;5067445;28;20453;-59
2023/10/12 04:41:37;;;;;;;10.40;3.53;;;;;;;19.49;72.45;100302.72;5053977;28;20536;-59
2023/10/12 04:46:47;;;;;;;6.10;3.50;;;;;;;19.49;72.20;100299.84;5051029;28;20479;-59
2023/10/12 04:52:32;;;;;;;4.63;2.60;;;;;;;19.49;72.15;100317.88;5065202;28;21093;-58
2023/10/12 04:54:30;;;;;;;6.43;3.03;;;;;;;19.49;72.21;100305.56;5052893;28;20536;-59
2023/10/12 04:59:43;;;;;;;4.50;3.00;;;;;;;19.49;72.13;100296.97;5054456;28;20437;-58
2023/10/12 05:05:14;;;;;;;5.53;2.53;;;;;;;19.49;72.24;100311.31;5070563;28;20441;-58
2023/10/12 05:09:49;;;;;;;5.70;3.03;;;;;;;19.48;72.23;100310.50;5051277;28;20513;-58
2023/10/12 05:12:16;;;;;;;7.30;3.20;;;;;;;19.48;72.29;100310.50;5050506;28;20231;-58
2023/10/12 05:14:41;;;;;;;4.83;3.07;;;;;;;19.49;72.06;100302.72;5049848;28;20858;-59
2023/10/12 05:17:10;;;;;;;4.10;2.70;;;;;;;19.49;72.14;100297.81;5065651;28;20516;-59
2023/10/12 05:19:35;;;;;;;4.53;3.07;;;;;;;19.49;72.20;100297.81;5068373;28;20219;-58
2023/10/12 05:22:01;;;;;;;5.50;3.53;;;;;;;19.49;72.17;100294.97;5057726;28;20494;-58
2023/10/12 05:24:26;;;;;;;8.83;2.77;;;;;;;19.49;72.37;100300.69;5069046;28;20187;-58
2023/10/12 05:26:57;;;;;;;6.70;2.97;;;;;;;19.50;72.03;100302.31;5069199;28;20175;-59
2023/10/12 05:31:59;;;;;;;4.93;2.90;;;;;;;19.48;72.27;100307.63;5069294;28;20444;-58
2023/10/12 05:34:44;;;;;;;5.00;3.17;;;;;;;19.48;72.15;100299.03;5066909;28;20198;-58
2023/10/12 05:37:37;;;;;;;4.83;2.83;;;;;;;19.49;72.13;100314.16;5056368;28;20448;-58
2023/10/12 05:40:09;;;;;;;4.70;2.90;;;;;;;19.48;72.25;100310.50;5050169;28;20455;-58
2023/10/12 05:42:39;;;;;;;4.63;2.77;;;;;;;19.49;72.15;100303.53;5067388;28;20440;-59
2023/10/12 05:45:21;;;;;;;4.07;2.57;;;;;;;19.48;72.25;100310.50;5051394;28;20885;-59
2023/10/12 05:47:51;;;;;;;4.93;2.90;;;;;;;19.48;72.23;100315.38;5056749;28;20440;-59
2023/10/12 05:50:20;;;;;;;4.00;2.73;;;;;;;19.49;72.21;100314.16;5068815;28;20892;-59
2023/10/12 05:52:51;;;;;;;4.40;2.87;;;;;;;19.48;72.04;100310.50;5058288;28;20469;-59
2023/10/12 05:55:23;;;;;;;5.67;2.97;;;;;;;19.49;72.17;100314.16;5054997;28;20481;-59
2023/10/12 05:57:49;;;;;;;3.77;2.70;;;;;;;19.49;72.42;100312.13;5050284;28;20953;-59
2023/10/12 06:01:05;;;;;;;4.20;2.83;;;;;;;19.48;72.13;100304.78;5057742;28;20433;-58
2023/10/12 06:03:15;;;;;;;7.00;3.40;;;;;;;19.48;72.48;100313.34;5057101;28;20195;-58
2023/10/12 06:05:42;;;;;;;4.00;2.63;;;;;;;19.48;72.23;100319.09;5064408;28;20418;-58
2023/10/12 06:08:10;;;;;;;4.47;3.03;;;;;;;19.47;72.06;100314.53;5059312;28;20449;-59
2023/10/12 06:10:41;;;;;;;4.73;2.83;;;;;;;19.47;71.97;100317.41;5048268;28;20463;-59
2023/10/12 06:13:11;;;;;;;4.87;2.90;;;;;;;19.49;72.26;100317.03;5050115;28;20556;-59
2023/10/12 06:15:42;;;;;;;4.10;2.73;;;;;;;19.48;72.22;100316.22;5060279;28;20517;-59
2023/10/12 06:18:13;;;;;;;5.27;3.00;;;;;;;19.47;72.06;100320.28;5066586;28;20445;-59
2023/10/12 06:20:42;;;;;;;6.03;3.10;;;;;;;19.48;72.24;100330.53;5067550;28;20469;-58
2023/10/12 06:23:14;;;;;;;5.23;3.07;;;;;;;19.48;72.14;100332.56;5060064;28;20452;-59
2023/10/12 06:25:39;;;;;;;3.87;2.43;;;;;;;19.47;72.13;100328.06;5060751;28;20757;-59
2023/10/12 06:28:16;;;;;;;6.10;3.07;;;;;;;19.48;72.24;100324.81;5059465;28;20487;-58
2023/10/12 06:30:43;;;;;;;5.57;3.23;;;;;;;19.48;72.22;100335.44;5065004;28;20195;-58
2023/10/12 06:33:13;;;;;;;4.77;3.40;;;;;;;19.49;72.14;100342.78;5063068;28;20830;-58
2023/10/12 06:35:58;;;;;;;5.20;3.07;;;;;;;19.48;71.94;100338.28;5048552;28;20422;-59
2023/10/12 06:38:37;;;;;;;4.83;2.97;;;;;;;19.48;72.21;100344.84;5065833;28;20445;-59
2023/10/12 06:41:28;;;;;;;5.33;2.30;;;;;;;19.49;72.14;100348.53;5067207;28;20493;-58
2023/10/12 06:46:18;;;;;;;4.13;2.80;;;;;;;19.47;72.34;100348.91;5059844;28;20426;-58
2023/10/12 06:48:47;;;;;;;5.63;2.77;;;;;;;19.48;72.20;100353.44;5060190;28;20437;-58
2023/10/12 06:51:15;;;;;;;5.13;2.90;;;;;;;19.48;72.17;100352.59;5057809;28;20472;-58
2023/10/12 06:53:52;;;;;;;4.37;2.57;;;;;;;19.49;72.05;100368.56;5058108;28;20465;-58
2023/10/12 06:58:43;;;;;;;5.17;3.00;;;;;;;19.48;72.03;100381.25;5068401;28;20454;-58
2023/10/12 07:01:27;;;;;;;6.07;3.10;;;;;;;19.55;72.87;100375.59;5062390;28;20183;-57
2023/10/12 07:03:53;;;;;;;3.90;2.90;;;;;;;19.55;72.33;100381.34;5045762;28;20449;-59
2023/10/12 07:06:19;;;;;;;6.13;2.93;;;;;;;19.62;72.38;100381.47;5042854;28;20438;-59
2023/10/12 07:08:46;;;;;;;8.43;5.03;;;;;;;19.78;72.09;100382.94;5025968;28;20678;-60
2023/10/12 07:11:14;;;;;;;11.00;5.90;;;;;;;19.94;71.34;100371.28;5037912;28;21015;-59
2023/10/12 07:13:41;;;;;;;18.40;7.70;;;;;;;20.06;70.50;100359.59;5054122;28;20466;-60
2023/10/12 07:16:08;;;;;;;21.57;8.13;;;;;;;19.94;71.05;100351.22;5050767;28;20436;-59
2023/10/12 07:18:34;;;;;;;19.73;8.20;;;;;;;19.88;72.25;100369.97;5054573;28;20496;-59
2023/10/12 07:21:00;;;;;;;15.73;7.00;;;;;;;19.97;72.22;100356.97;5056276;28;20488;-59
2023/10/12 07:23:35;;;;;;;19.37;8.80;;;;;;;20.10;72.15;100369.91;5057017;28;20428;-58
2023/10/12 07:26:06;;;;;;;15.93;7.73;;;;;;;20.00;71.09;100379.16;5064548;28;20642;-59
2023/10/12 07:28:35;;;;;;;14.93;6.47;;;;;;;19.97;71.91;100379.09;5042191;28;20458;-58
2023/10/12 07:39:20;;;;;;;13.70;6.37;;;;;;;19.94;70.86;100389.31;5051555;28;20547;-59
2023/10/12 07:42:25;;;;;;;17.07;6.10;;;;;;;19.96;70.59;100389.72;5066886;28;20425;-58
2023/10/12 07:44:53;;;;;;;12.23;5.33;;;;;;;19.99;70.44;100373.78;5059139;28;21000;-58
2023/10/12 07:47:22;;;;;;;13.00;5.60;;;;;;;19.95;70.17;100373.75;5055802;28;20472;-57
2023/10/12 07:49:57;;;;;;;22.67;6.00;;;;;;;19.92;68.67;100367.97;5051139;28;20426;-58
2023/10/12 07:52:33;;;;;;;18.10;7.57;;;;;;;19.95;68.85;100368.03;5050452;28;20457;-58
2023/10/12 07:54:59;;;;;;;13.67;6.10;;;;;;;19.97;68.68;100371.31;5054981;28;20445;-58
2023/10/12 07:57:29;;;;;;;15.60;5.90;;;;;;;19.99;68.52;100374.63;5053476;28;20433;-57
2023/10/12 08:13:15;;;;;;;15.23;6.70;;;;;;;20.06;68.94;100369.00;5058575;28;20475;-58
2023/10/12 08:21:24;;;;;;;12.77;6.27;;;;;;;20.04;67.59;100377.16;5057174;28;20425;-58
2023/10/12 08:24:05;;;;;;;9.13;5.50;;;;;;;20.02;66.91;100378.75;5062696;28;20861;-58
2023/10/12 08:26:50;;;;;;;9.80;5.17;;;;;;;19.99;67.09;100368.91;5052351;28;20831;-58
2023/10/12 08:31:48;;;;;;;11.63;5.33;;;;;;;20.02;67.47;100362.38;5051143;28;20429;-58
2023/10/12 08:39:37;;;;;;;15.03;5.70;;;;;;;20.03;67.44;100374.69;5060247;28;20547;-58
2023/10/12 08:44:35;;;;;;;19.83;7.10;;;;;;;20.01;67.25;100372.19;5063716;28;20437;-59
2023/10/12 08:47:09;;;;;;;15.80;6.07;;;;;;;20.01;67.24;100375.06;5040220;28;20468;-57
2023/10/12 08:49:34;;;;;;;12.27;6.50;;;;;;;20.00;67.57;100369.72;5044991;28;20461;-58
2023/10/12 08:52:05;;;;;;;17.80;7.00;;;;;;;19.99;67.76;100373.78;5043119;28;20430;-58
2023/10/12 08:54:37;;;;;;;13.37;6.00;;;;;;;20.02;68.12;100373.84;5055406;28;20184;-57
2023/10/12 08:57:09;;;;;;;15.00;5.70;;;;;;;20.06;67.37;100379.63;5052340;28;20473;-58
2023/10/12 08:59:38;;;;;;;17.30;6.77;;;;;;;20.10;66.97;100384.22;5048614;28;20425;-58
2023/10/12 09:02:18;;;;;;;14.43;6.67;;;;;;;20.13;66.44;100374.03;5054335;28;20441;-58
2023/10/12 09:04:44;;;;;;;12.17;6.07;;;;;;;20.14;66.03;100379.38;5060665;28;20959;-58
2023/10/12 09:07:16;;;;;;;13.87;6.70;;;;;;;20.10;66.83;100364.16;5062659;28;20491;-57
2023/10/12 09:10:48;;;;;;;15.90;6.63;;;;;;;20.04;67.25;100371.44;5058689;28;20426;-57
2023/10/12 09:12:39;;;;;;;15.37;6.17;;;;;;;20.07;66.97;100364.94;5055899;28;20469;-57
2023/10/12 09:15:08;;;;;;;12.87;6.00;;;;;;;20.04;67.21;100371.44;5039022;28;20502;-57
2023/10/12 09:17:40;;;;;;;13.80;5.67;;;;;;;20.05;66.86;100372.22;5055972;28;20522;-57
2023/10/12 09:20:27;;;;;;;17.03;6.63;;;;;;;20.06;66.89;100379.63;5053504;28;20469;-57
2023/10/12 09:22:58;;;;;;;15.63;7.03;;;;;;;20.05;67.25;100381.66;5064263;28;20437;-57
2023/10/12 09:25:59;;;;;;;10.00;5.60;;;;;;;20.06;66.88;100377.59;5054531;28;20433;-57
2023/10/12 09:28:14;;;;;;;13.20;6.90;;;;;;;20.05;66.67;100387.41;5049913;28;20444;-57
2023/10/12 09:30:44;;;;;;;14.63;6.67;;;;;;;20.04;67.07;100382.88;5064133;28;20449;-57
2023/10/12 09:33:44;;;;;;;12.43;6.43;;;;;;;20.02;67.38;100384.50;5064710;28;20464;-57
2023/10/12 09:36:00;;;;;;;12.90;5.70;;;;;;;20.04;67.61;100390.66;5052385;28;20587;-57
2023/10/12 09:38:30;;;;;;;20.00;5.93;;;;;;;20.03;67.33;100404.19;5053214;28;20477;-57
2023/10/12 09:40:59;;;;;;;14.70;5.77;;;;;;;20.06;67.29;100393.97;5051155;28;20835;-58
2023/10/12 09:43:25;;;;;;;18.13;5.90;;;;;;;20.03;67.33;100395.56;5042375;28;21030;-57
2023/10/12 09:45:55;;;;;;;13.33;6.00;;;;;;;20.04;67.16;100408.69;5055644;28;20457;-57
2023/10/12 09:48:27;;;;;;;13.90;6.17;;;;;;;20.05;67.17;100398.88;5042722;28;20195;-57
2023/10/12 09:50:53;;;;;;;11.93;5.50;;;;;;;20.07;66.82;100402.19;5046363;28;21089;-58
2023/10/12 09:53:24;;;;;;;11.77;6.57;;;;;;;20.04;67.18;100402.13;5056221;28;20483;-58
2023/10/12 09:56:11;;;;;;;11.73;6.23;;;;;;;20.05;67.39;100406.63;5062306;28;20187;-57
2023/10/12 09:58:51;;;;;;;10.07;5.90;;;;;;;20.05;67.34;100407.47;5057430;28;20451;-58
2023/10/12 10:01:16;;;;;;;12.30;5.60;;;;;;;20.02;67.68;100413.97;5051980;28;20503;-57
2023/10/12 10:03:48;;;;;;;11.53;7.00;;;;;;;20.02;67.74;100419.69;5049905;28;20429;-57
2023/10/12 10:11:45;;;;;;;13.40;6.27;;;;;;;20.05;67.29;100406.63;5049903;28;20781;-57
2023/10/12 10:14:17;;;;;;;16.97;5.97;;;;;;;20.07;67.54;100419.38;5056034;28;20473;-57
2023/10/12 10:16:46;;;;;;;11.77;6.83;;;;;;;20.06;67.16;100414.84;5055990;28;20924;-57
2023/10/12 10:19:17;;;;;;;16.57;5.80;;;;;;;20.07;67.35;100418.53;5049602;28;20470;-57
2023/10/12 10:22:04;;;;;;;14.73;6.40;;;;;;;20.09;67.31;100413.28;5053143;28;20570;-57
2023/10/12 10:24:34;;;;;;;11.73;5.67;;;;;;;20.09;67.21;100410.41;5064802;28;20440;-57
2023/10/12 10:27:12;;;;;;;14.73;6.60;;;;;;;20.09;67.37;100416.97;5069168;28;20417;-58
2023/10/12 10:29:44;;;;;;;14.43;6.87;;;;;;;20.05;67.49;100424.66;5049223;28;20442;-57
2023/10/12 10:32:14;;;;;;;10.97;6.17;;;;;;;20.06;67.21;100425.50;5051489;28;21330;-57
2023/10/12 10:34:41;;;;;;;11.53;6.07;;;;;;;20.05;67.59;100424.66;5066899;28;20445;-57
2023/10/12 10:37:11;;;;;;;9.93;6.53;;;;;;;20.05;67.70;100418.94;5065218;28;20429;-58
2023/10/12 10:39:38;;;;;;;9.37;5.97;;;;;;;20.07;67.86;100421.41;5067464;28;20441;-58
2023/10/12 10:42:08;;;;;;;10.07;5.63;;;;;;;20.06;67.62;100419.78;5062437;28;20471;-57
2023/10/12 10:44:41;;;;;;;13.23;6.20;;;;;;;20.03;67.64;100427.09;5048371;28;20509;-58
2023/10/12 10:47:07;;;;;;;14.77;6.33;;;;;;;20.02;67.54;100425.44;5048642;28;20906;-58
2023/10/12 10:49:32;;;;;;;10.70;6.37;;;;;;;20.03;68.07;100423.41;5066032;28;20429;-57
2023/10/12 10:52:03;;;;;;;10.70;5.27;;;;;;;20.01;67.87;100426.66;5068276;28;20163;-57
2023/10/12 10:54:28;;;;;;;15.70;6.07;;;;;;;20.02;68.01;100436.88;5056003;28;20535;-57
2023/10/12 10:56:54;;;;;;;10.13;5.73;;;;;;;20.04;67.86;100428.75;5067429;28;20405;-57
2023/10/12 10:59:19;;;;;;;27.37;6.47;;;;;;;20.04;68.20;100430.78;5060884;28;20209;-56
2023/10/12 11:01:50;;;;;;;9.27;5.50;;;;;;;20.01;68.12;100435.25;5068202;28;20183;-57
2023/10/12 11:05:10;;;;;;;11.27;6.07;;;;;;;20.02;68.30;100439.75;5064166;28;20180;-57
2023/10/12 11:07:11;;;;;;;10.47;6.37;;;;;;;20.04;68.30;100440.22;5048436;28;20430;-57
2023/10/12 11:10:19;;;;;;;10.50;6.13;;;;;;;20.04;68.58;100443.06;5072275;28;20439;-57
2023/10/12 11:12:32;;;;;;;8.67;5.50;;;;;;;20.04;68.42;100448.81;5069583;28;20943;-57
2023/10/12 11:15:01;;;;;;;8.87;5.43;;;;;;;20.04;68.66;100443.06;5071341;28;20460;-57
2023/10/12 11:17:30;;;;;;;12.97;6.77;;;;;;;20.05;68.73;100446.75;5072837;28;20519;-57
2023/10/12 11:20:00;;;;;;;14.47;6.50;;;;;;;20.04;68.77;100460.28;5065457;28;20470;-57
2023/10/12 11:22:25;;;;;;;11.23;5.80;;;;;;;20.05;68.97;100443.88;5066519;28;20420;-58
2023/10/12 11:24:53;;;;;;;10.97;5.70;;;;;;;20.06;68.81;100442.69;5061477;28;20433;-57
2023/10/12 11:27:35;;;;;;;8.80;5.70;;;;;;;20.07;68.86;100435.75;5071233;28;20190;-57
2023/10/12 11:30:06;;;;;;;10.60;5.57;;;;;;;20.06;68.74;100437.78;5068845;28;20458;-57
2023/10/12 11:32:33;;;;;;;15.90;6.83;;;;;;;20.03;69.00;100435.69;5071464;28;20452;-57
2023/10/12 11:35:01;;;;;;;11.77;5.93;;;;;;;20.03;69.40;100435.69;5071473;28;20428;-57
2023/10/12 11:37:30;;;;;;;10.93;6.20;;;;;;;20.02;69.05;100436.09;5070513;28;20892;-58
2023/10/12 11:39:57;;;;;;;13.13;6.10;;;;;;;20.02;69.43;100430.34;5068814;28;20508;-57
2023/10/12 11:42:23;;;;;;;11.17;5.40;;;;;;;20.01;69.30;100431.56;5070782;28;20441;-58
2023/10/12 11:44:51;;;;;;;13.97;6.23;;;;;;;19.99;69.47;100434.81;5071745;28;20488;-58
2023/10/12 11:47:25;;;;;;;7.83;4.87;;;;;;;19.99;69.64;100426.22;5070411;28;20167;-57
2023/10/12 11:49:58;;;;;;;14.10;5.63;;;;;;;19.98;69.77;100423.72;5056884;28;20448;-57
2023/10/12 11:52:34;;;;;;;9.73;5.60;;;;;;;19.98;69.99;100418.84;5052692;28;20456;-58
2023/10/12 11:55:07;;;;;;;9.80;5.83;;;;;;;19.97;69.86;100420.03;5065782;28;20451;-57
2023/10/12 11:57:37;;;;;;;10.03;5.87;;;;;;;19.98;69.91;100418.00;5073732;28;20412;-57
2023/10/12 12:00:21;;;;;;;9.57;5.27;;;;;;;19.98;69.97;100423.72;5067718;28;20449;-58
2023/10/12 12:02:57;;;;;;;9.90;5.83;;;;;;;19.98;69.81;100418.84;5052051;28;20934;-57
2023/10/12 12:05:23;;;;;;;10.77;5.47;;;;;;;19.98;69.99;100404.50;5063742;28;20445;-57
2023/10/12 12:07:51;;;;;;;15.37;6.27;;;;;;;19.97;69.96;100394.25;5071264;28;20495;-57
2023/10/12 12:10:27;;;;;;;10.20;5.10;;;;;;;19.97;70.27;100397.09;5071872;28;20421;-57
2023/10/12 12:12:52;;;;;;;10.47;5.17;;;;;;;19.95;69.96;100385.22;5071722;28;20460;-58
2023/10/12 12:15:23;;;;;;;14.93;5.53;;;;;;;19.96;70.28;100375.41;5070086;28;20456;-58
2023/10/12 12:17:48;;;;;;;9.37;5.47;;;;;;;19.96;70.07;100369.66;5071848;28;20175;-57
2023/10/12 12:20:21;;;;;;;10.80;6.17;;;;;;;19.96;70.13;100358.22;5065812;28;20530;-57
2023/10/12 12:22:47;;;;;;;15.33;6.00;;;;;;;19.96;70.49;100346.75;5071552;28;20304;-57
2023/10/12 12:25:20;;;;;;;8.67;5.43;;;;;;;19.96;70.01;100368.88;5071083;28;20480;-57
2023/10/12 12:27:49;;;;;;;11.20;5.67;;;;;;;19.97;70.11;100376.25;5071375;28;20822;-57
2023/10/12 12:30:33;;;;;;;11.17;5.90;;;;;;;19.97;70.13;100367.66;5071613;28;20494;-58
2023/10/12 12:33:03;;;;;;;9.10;5.10;;;;;;;19.96;70.10;100358.22;5058051;28;20964;-57
2023/10/12 12:35:31;;;;;;;7.60;5.20;;;;;;;19.96;70.09;100351.66;5051348;28;20418;-57
2023/10/12 12:38:00;;;;;;;11.33;6.17;;;;;;;19.97;70.40;100348.38;5050969;28;20450;-58
2023/10/12 12:40:38;;;;;;;13.83;5.87;;;;;;;19.96;70.22;100340.22;5051118;28;20419;-57
2023/10/12 12:43:07;;;;;;;9.73;5.30;;;;;;;19.96;70.21;100335.28;5061539;28;20464;-57
2023/10/12 12:45:35;;;;;;;8.50;5.60;;;;;;;19.96;70.21;100326.69;5049961;28;20433;-57
2023/10/12 12:48:01;;;;;;;7.90;5.00;;;;;;;19.97;70.16;100324.66;5063819;28;20440;-57
2023/10/12 12:50:28;;;;;;;10.10;5.10;;;;;;;19.96;70.21;100323.81;5069009;28;20445;-57
2023/10/12 12:52:54;;;;;;;10.60;5.63;;;;;;;19.95;70.00;100319.31;5053204;28;20458;-58
2023/10/12 12:55:22;;;;;;;9.30;5.70;;;;;;;19.94;70.37;100311.94;5051056;28;20426;-57
2023/10/12 12:57:47;;;;;;;8.30;5.53;;;;;;;19.96;70.12;100311.56;5071095;28;20428;-57
2023/10/12 13:00:21;;;;;;;10.47;5.33;;;;;;;19.96;70.37;100305.81;5071284;28;20777;-57
2023/10/12 13:02:47;;;;;;;10.20;5.80;;;;;;;19.95;70.31;100304.97;5069657;28;20190;-57
2023/10/12 13:05:13;;;;;;;10.03;5.70;;;;;;;19.96;70.13;100298.03;5070499;28;20413;-57
2023/10/12 13:07:40;;;;;;;8.70;5.40;;;;;;;19.95;70.35;100287.78;5069939;28;20191;-57
2023/10/12 13:10:11;;;;;;;10.07;6.03;;;;;;;19.97;70.37;100287.41;5070768;28;20460;-58
2023/10/12 13:12:42;;;;;;;12.93;5.57;;;;;;;19.96;70.38;100289.44;5070390;28;20457;-57
2023/10/12 13:15:11;;;;;;;9.33;5.27;;;;;;;19.95;70.32;100287.78;5064581;28;20464;-56
2023/10/12 13:17:37;;;;;;;9.60;5.63;;;;;;;19.95;70.30;100287.78;5070624;28;20921;-58
2023/10/12 13:20:03;;;;;;;9.60;5.27;;;;;;;19.96;70.49;100288.63;5070385;28;20531;-57
2023/10/12 13:22:28;;;;;;;10.77;5.83;;;;;;;19.96;70.48;100285.75;5067971;28;20425;-57
2023/10/12 13:24:57;;;;;;;12.20;5.70;;;;;;;19.96;70.28;100280.84;5068807;28;20183;-57
2023/10/12 13:27:29;;;;;;;7.80;4.93;;;;;;;19.96;70.52;100289.44;5069453;28;20519;-57
2023/10/12 13:29:59;;;;;;;10.67;5.70;;;;;;;19.97;70.24;100290.28;5069654;28;20441;-57
2023/10/12 13:32:26;;;;;;;12.67;5.17;;;;;;;19.97;70.41;100284.53;5066102;28;20805;-58
2023/10/12 13:34:52;;;;;;;12.30;5.80;;;;;;;19.98;70.43;100286.19;5070086;28;20425;-56
2023/10/12 13:37:17;;;;;;;13.07;6.47;;;;;;;19.97;70.46;100285.34;5069287;28;20433;-58
2023/10/12 13:39:43;;;;;;;9.40;5.67;;;;;;;19.96;70.44;100277.16;5068098;28;20184;-58
2023/10/12 13:42:11;;;;;;;8.73;5.90;;;;;;;19.97;70.37;100268.16;5068621;28;20186;-57
2023/10/12 13:44:42;;;;;;;7.93;5.00;;;;;;;19.98;70.60;100266.97;5065729;28;20171;-57
2023/10/12 13:47:08;;;;;;;8.17;5.83;;;;;;;19.98;70.21;100269.81;5055865;28;20516;-58
2023/10/12 13:49:37;;;;;;;7.93;5.47;;;;;;;19.96;70.35;100269.38;5067370;28;20583;-57
2023/10/12 13:52:09;;;;;;;7.10;5.20;;;;;;;19.98;70.62;100255.50;5067362;28;20156;-57
2023/10/12 13:54:35;;;;;;;11.30;6.57;;;;;;;20.00;70.56;100258.78;5064113;28;20525;-58
2023/10/12 13:57:02;;;;;;;9.87;5.90;;;;;;;20.00;70.34;100261.66;5051712;28;20442;-57